sensor_id;sensor_type;location;lat;lon;timestamp;temperature;humidity
46336;DHT22;31365;48.858;8.530;2023-04-06T00:01:24;2.70;99.90
46336;DHT22;31365;48.858;8.530;2023-04-06T00:03:55;2.70;99.90
46336;DHT22;31365;48.858;8.530;2023-04-06T00:06:24;2.70;99.90
46336;DHT22;31365;48.858;8.530;2023-04-06T00:08:53;2.60;99.90
46336;DHT22;31365;48.858;8.530;2023-04-06T00:11:23;2.70;99.90
46336;DHT22;31365;48.858;8.530;2023-04-06T00:13:53;2.70;99.90
46336;DHT22;31365;48.858;8.530;2023-04-06T00:16:22;2.70;99.90
46336;DHT22;31365;48.858;8.530;2023-04-06T00:18:57;2.70;99.90
46336;DHT22;31365;48.858;8.530;2023-04-06T00:21:26;2.70;99.90
46336;DHT22;31365;48.858;8.530;2023-04-06T00:23:56;2.70;99.90
46336;DHT22;31365;48.858;8.530;2023-04-06T00:26:24;2.60;99.90
46336;DHT22;31365;48.858;8.530;2023-04-06T00:28:55;2.60;99.90
46336;DHT22;31365;48.858;8.530;2023-04-06T00:31:25;2.60;99.90
46336;DHT22;31365;48.858;8.530;2023-04-06T00:33:54;2.60;99.90
46336;DHT22;31365;48.858;8.530;2023-04-06T00:36:27;2.50;99.90
46336;DHT22;31365;48.858;8.530;2023-04-06T00:38:55;2.50;99.90
46336;DHT22;31365;48.858;8.530;2023-04-06T00:41:25;2.50;99.90
46336;DHT22;31365;48.858;8.530;2023-04-06T00:43:54;2.50;99.90
46336;DHT22;31365;48.858;8.530;2023-04-06T00:46:24;2.50;99.90
46336;DHT22;31365;48.858;8.530;2023-04-06T00:48:53;2.50;99.90
46336;DHT22;31365;48.858;8.530;2023-04-06T00:51:24;2.50;99.90
46336;DHT22;31365;48.858;8.530;2023-04-06T00:53:53;2.60;99.90
46336;DHT22;31365;48.858;8.530;2023-04-06T00:56:23;2.60;99.90
46336;DHT22;31365;48.858;8.530;2023-04-06T00:58:53;2.60;99.90
46336;DHT22;31365;48.858;8.530;2023-04-06T01:01:23;2.60;99.90
46336;DHT22;31365;48.858;8.530;2023-04-06T01:03:58;2.60;99.90
46336;DHT22;31365;48.858;8.530;2023-04-06T01:06:33;2.60;99.90
46336;DHT22;31365;48.858;8.530;2023-04-06T01:09:03;2.50;99.90
46336;DHT22;31365;48.858;8.530;2023-04-06T01:11:32;2.50;99.90
46336;DHT22;31365;48.858;8.530;2023-04-06T01:14:03;2.40;99.90
46336;DHT22;31365;48.858;8.530;2023-04-06T01:16:51;2.40;99.90
46336;DHT22;31365;48.858;8.530;2023-04-06T01:19:27;2.40;99.90
46336;DHT22;31365;48.858;8.530;2023-04-06T01:21:58;2.30;99.90
46336;DHT22;31365;48.858;8.530;2023-04-06T01:24:29;2.40;99.90
46336;DHT22;31365;48.858;8.530;2023-04-06T01:27:17;2.40;99.90
46336;DHT22;31365;48.858;8.530;2023-04-06T01:30:02;2.40;99.90
46336;DHT22;31365;48.858;8.530;2023-04-06T01:32:58;2.40;99.90
46336;DHT22;31365;48.858;8.530;2023-04-06T01:35:39;2.40;99.90
46336;DHT22;31365;48.858;8.530;2023-04-06T01:38:17;2.40;99.90
46336;DHT22;31365;48.858;8.530;2023-04-06T01:40:49;2.30;99.90
46336;DHT22;31365;48.858;8.530;2023-04-06T01:43:20;2.20;99.90
46336;DHT22;31365;48.858;8.530;2023-04-06T01:46:02;2.20;99.90
46336;DHT22;31365;48.858;8.530;2023-04-06T01:48:36;2.20;99.90
46336;DHT22;31365;48.858;8.530;2023-04-06T01:51:15;2.10;99.90
46336;DHT22;31365;48.858;8.530;2023-04-06T01:53:52;2.10;99.90
46336;DHT22;31365;48.858;8.530;2023-04-06T01:56:30;2.00;99.90
46336;DHT22;31365;48.858;8.530;2023-04-06T01:59:12;1.90;99.90
46336;DHT22;31365;48.858;8.530;2023-04-06T02:01:42;1.90;99.90
46336;DHT22;31365;48.858;8.530;2023-04-06T02:04:12;1.80;99.90
46336;DHT22;31365;48.858;8.530;2023-04-06T02:06:44;1.70;99.90
46336;DHT22;31365;48.858;8.530;2023-04-06T02:09:18;1.70;99.90
46336;DHT22;31365;48.858;8.530;2023-04-06T02:11:49;1.70;99.90
46336;DHT22;31365;48.858;8.530;2023-04-06T02:14:20;1.70;99.90
46336;DHT22;31365;48.858;8.530;2023-04-06T02:16:52;1.70;99.90
46336;DHT22;31365;48.858;8.530;2023-04-06T02:19:23;1.70;99.90
46336;DHT22;31365;48.858;8.530;2023-04-06T02:21:54;1.60;99.90
46336;DHT22;31365;48.858;8.530;2023-04-06T02:24:23;1.70;99.90
46336;DHT22;31365;48.858;8.530;2023-04-06T02:26:53;1.60;99.90
46336;DHT22;31365;48.858;8.530;2023-04-06T02:29:23;1.50;99.90
46336;DHT22;31365;48.858;8.530;2023-04-06T02:31:54;1.50;99.90
46336;DHT22;31365;48.858;8.530;2023-04-06T02:34:24;1.50;99.90
46336;DHT22;31365;48.858;8.530;2023-04-06T02:51:30;1.30;99.90
46336;DHT22;31365;48.858;8.530;2023-04-06T02:54:24;1.40;99.90
46336;DHT22;31365;48.858;8.530;2023-04-06T02:56:54;1.40;99.90
46336;DHT22;31365;48.858;8.530;2023-04-06T02:59:32;1.40;99.90
46336;DHT22;31365;48.858;8.530;2023-04-06T03:02:12;1.40;99.90
46336;DHT22;31365;48.858;8.530;2023-04-06T03:04:42;1.50;99.90
46336;DHT22;31365;48.858;8.530;2023-04-06T03:07:27;1.50;99.90
46336;DHT22;31365;48.858;8.530;2023-04-06T03:09:58;1.50;99.90
46336;DHT22;31365;48.858;8.530;2023-04-06T03:12:31;1.60;99.90
46336;DHT22;31365;48.858;8.530;2023-04-06T03:15:21;1.60;99.90
46336;DHT22;31365;48.858;8.530;2023-04-06T03:17:56;1.60;99.90
46336;DHT22;31365;48.858;8.530;2023-04-06T03:20:35;1.60;99.90
46336;DHT22;31365;48.858;8.530;2023-04-06T03:23:06;1.60;99.90
46336;DHT22;31365;48.858;8.530;2023-04-06T03:34:58;1.70;99.90
46336;DHT22;31365;48.858;8.530;2023-04-06T03:37:28;1.70;99.90
46336;DHT22;31365;48.858;8.530;2023-04-06T03:40:03;1.70;99.90
46336;DHT22;31365;48.858;8.530;2023-04-06T03:42:34;1.70;99.90
46336;DHT22;31365;48.858;8.530;2023-04-06T03:45:10;1.70;99.90
46336;DHT22;31365;48.858;8.530;2023-04-06T03:47:46;1.70;99.90
46336;DHT22;31365;48.858;8.530;2023-04-06T03:50:15;1.70;99.90
46336;DHT22;31365;48.858;8.530;2023-04-06T03:52:44;1.70;99.90
46336;DHT22;31365;48.858;8.530;2023-04-06T03:55:15;1.70;99.90
46336;DHT22;31365;48.858;8.530;2023-04-06T03:57:45;1.60;99.90
46336;DHT22;31365;48.858;8.530;2023-04-06T04:00:15;1.60;99.90
46336;DHT22;31365;48.858;8.530;2023-04-06T04:02:45;1.60;99.90
46336;DHT22;31365;48.858;8.530;2023-04-06T04:05:14;1.60;99.90
46336;DHT22;31365;48.858;8.530;2023-04-06T04:07:43;1.60;99.90
46336;DHT22;31365;48.858;8.530;2023-04-06T04:10:13;1.50;99.90
46336;DHT22;31365;48.858;8.530;2023-04-06T04:12:43;1.50;99.90
46336;DHT22;31365;48.858;8.530;2023-04-06T04:15:12;1.50;99.90
46336;DHT22;31365;48.858;8.530;2023-04-06T04:17:42;1.40;99.90
46336;DHT22;31365;48.858;8.530;2023-04-06T04:20:14;1.40;99.90
46336;DHT22;31365;48.858;8.530;2023-04-06T04:35:57;1.40;99.90
46336;DHT22;31365;48.858;8.530;2023-04-06T04:38:31;1.30;99.90
46336;DHT22;31365;48.858;8.530;2023-04-06T04:41:01;1.30;99.90
46336;DHT22;31365;48.858;8.530;2023-04-06T04:43:30;1.30;99.90
46336;DHT22;31365;48.858;8.530;2023-04-06T04:46:02;1.30;99.90
46336;DHT22;31365;48.858;8.530;2023-04-06T04:48:41;1.30;99.90
46336;DHT22;31365;48.858;8.530;2023-04-06T04:51:11;1.30;99.90
46336;DHT22;31365;48.858;8.530;2023-04-06T04:53:53;1.30;99.90
46336;DHT22;31365;48.858;8.530;2023-04-06T04:56:26;1.30;99.90
46336;DHT22;31365;48.858;8.530;2023-04-06T04:59:06;1.30;99.90
46336;DHT22;31365;48.858;8.530;2023-04-06T05:01:38;1.30;99.90
46336;DHT22;31365;48.858;8.530;2023-04-06T05:04:23;1.30;99.90
46336;DHT22;31365;48.858;8.530;2023-04-06T05:07:05;1.30;99.90
46336;DHT22;31365;48.858;8.530;2023-04-06T05:09:37;1.30;99.90
46336;DHT22;31365;48.858;8.530;2023-04-06T05:12:07;1.30;99.90
46336;DHT22;31365;48.858;8.530;2023-04-06T05:14:48;1.30;99.90
46336;DHT22;31365;48.858;8.530;2023-04-06T05:17:19;1.40;99.90
46336;DHT22;31365;48.858;8.530;2023-04-06T05:19:49;1.40;99.90
46336;DHT22;31365;48.858;8.530;2023-04-06T05:22:23;1.40;99.90
46336;DHT22;31365;48.858;8.530;2023-04-06T05:25:10;1.40;99.90
46336;DHT22;31365;48.858;8.530;2023-04-06T05:27:40;1.50;99.90
46336;DHT22;31365;48.858;8.530;2023-04-06T05:30:26;1.50;99.90
46336;DHT22;31365;48.858;8.530;2023-04-06T05:32:55;1.70;99.90
46336;DHT22;31365;48.858;8.530;2023-04-06T05:39:43;1.80;99.90
46336;DHT22;31365;48.858;8.530;2023-04-06T05:42:15;1.90;99.90
46336;DHT22;31365;48.858;8.530;2023-04-06T05:44:51;2.00;99.90
46336;DHT22;31365;48.858;8.530;2023-04-06T05:47:20;2.10;99.90
46336;DHT22;31365;48.858;8.530;2023-04-06T05:49:57;2.20;99.90
46336;DHT22;31365;48.858;8.530;2023-04-06T05:52:33;2.20;99.90
46336;DHT22;31365;48.858;8.530;2023-04-06T05:55:04;2.30;99.90
46336;DHT22;31365;48.858;8.530;2023-04-06T05:57:38;2.30;99.90
46336;DHT22;31365;48.858;8.530;2023-04-06T06:00:09;2.40;99.90
46336;DHT22;31365;48.858;8.530;2023-04-06T06:02:39;2.50;99.90
46336;DHT22;31365;48.858;8.530;2023-04-06T06:05:15;2.50;99.90
46336;DHT22;31365;48.858;8.530;2023-04-06T06:17:30;2.90;99.90
46336;DHT22;31365;48.858;8.530;2023-04-06T06:19:59;3.00;99.90
46336;DHT22;31365;48.858;8.530;2023-04-06T06:22:28;3.10;99.90
46336;DHT22;31365;48.858;8.530;2023-04-06T06:24:57;3.20;99.90
46336;DHT22;31365;48.858;8.530;2023-04-06T06:27:27;3.30;99.90
46336;DHT22;31365;48.858;8.530;2023-04-06T06:29:56;3.50;99.90
46336;DHT22;31365;48.858;8.530;2023-04-06T06:32:25;3.60;99.90
46336;DHT22;31365;48.858;8.530;2023-04-06T06:34:56;3.80;99.90
46336;DHT22;31365;48.858;8.530;2023-04-06T06:37:25;3.90;99.90
46336;DHT22;31365;48.858;8.530;2023-04-06T06:39:57;4.10;99.90
46336;DHT22;31365;48.858;8.530;2023-04-06T06:42:26;4.30;99.90
46336;DHT22;31365;48.858;8.530;2023-04-06T06:45:07;4.30;99.90
46336;DHT22;31365;48.858;8.530;2023-04-06T06:47:37;4.50;99.90
46336;DHT22;31365;48.858;8.530;2023-04-06T06:50:08;4.60;99.90
46336;DHT22;31365;48.858;8.530;2023-04-06T06:52:37;4.70;99.90
46336;DHT22;31365;48.858;8.530;2023-04-06T06:55:08;4.90;99.90
46336;DHT22;31365;48.858;8.530;2023-04-06T06:57:39;5.00;99.90
46336;DHT22;31365;48.858;8.530;2023-04-06T07:00:11;5.20;99.90
46336;DHT22;31365;48.858;8.530;2023-04-06T07:02:43;5.30;99.90
46336;DHT22;31365;48.858;8.530;2023-04-06T07:05:14;5.50;99.90
46336;DHT22;31365;48.858;8.530;2023-04-06T07:07:56;5.70;99.90
46336;DHT22;31365;48.858;8.530;2023-04-06T07:10:25;5.90;99.90
46336;DHT22;31365;48.858;8.530;2023-04-06T07:12:55;6.10;99.90
46336;DHT22;31365;48.858;8.530;2023-04-06T07:15:24;6.20;99.90
46336;DHT22;31365;48.858;8.530;2023-04-06T07:17:53;6.40;99.90
46336;DHT22;31365;48.858;8.530;2023-04-06T07:20:24;6.50;99.90
46336;DHT22;31365;48.858;8.530;2023-04-06T07:22:55;6.70;99.90
46336;DHT22;31365;48.858;8.530;2023-04-06T07:25:23;6.80;99.90
46336;DHT22;31365;48.858;8.530;2023-04-06T07:27:52;7.00;99.90
46336;DHT22;31365;48.858;8.530;2023-04-06T07:30:24;7.20;99.90
46336;DHT22;31365;48.858;8.530;2023-04-06T07:32:54;7.30;99.90
46336;DHT22;31365;48.858;8.530;2023-04-06T07:40:03;7.60;99.90
46336;DHT22;31365;48.858;8.530;2023-04-06T07:42:33;7.70;99.90
46336;DHT22;31365;48.858;8.530;2023-04-06T07:45:05;7.90;99.90
46336;DHT22;31365;48.858;8.530;2023-04-06T07:47:36;8.00;99.90
46336;DHT22;31365;48.858;8.530;2023-04-06T07:50:07;8.00;99.90
46336;DHT22;31365;48.858;8.530;2023-04-06T07:52:37;8.20;99.90
46336;DHT22;31365;48.858;8.530;2023-04-06T07:55:09;8.30;99.90
46336;DHT22;31365;48.858;8.530;2023-04-06T07:57:39;8.40;99.90
46336;DHT22;31365;48.858;8.530;2023-04-06T08:00:09;8.50;99.90
46336;DHT22;31365;48.858;8.530;2023-04-06T08:02:38;8.70;99.90
46336;DHT22;31365;48.858;8.530;2023-04-06T08:05:08;8.80;99.90
46336;DHT22;31365;48.858;8.530;2023-04-06T08:07:38;8.90;99.90
46336;DHT22;31365;48.858;8.530;2023-04-06T08:10:08;9.00;99.90
46336;DHT22;31365;48.858;8.530;2023-04-06T08:12:37;9.10;99.90
46336;DHT22;31365;48.858;8.530;2023-04-06T08:15:06;9.20;99.90
46336;DHT22;31365;48.858;8.530;2023-04-06T08:17:35;9.40;99.90
46336;DHT22;31365;48.858;8.530;2023-04-06T08:20:05;9.50;99.90
46336;DHT22;31365;48.858;8.530;2023-04-06T08:22:35;9.60;99.90
46336;DHT22;31365;48.858;8.530;2023-04-06T08:25:05;9.70;99.90
46336;DHT22;31365;48.858;8.530;2023-04-06T08:27:35;9.90;99.80
46336;DHT22;31365;48.858;8.530;2023-04-06T08:30:05;9.90;99.80
46336;DHT22;31365;48.858;8.530;2023-04-06T08:32:35;10.00;99.90
46336;DHT22;31365;48.858;8.530;2023-04-06T08:35:04;10.10;99.80
46336;DHT22;31365;48.858;8.530;2023-04-06T08:37:32;10.10;98.90
46336;DHT22;31365;48.858;8.530;2023-04-06T08:40:02;10.10;99.20
46336;DHT22;31365;48.858;8.530;2023-04-06T08:42:33;10.10;99.10
46336;DHT22;31365;48.858;8.530;2023-04-06T08:45:09;10.20;98.80
46336;DHT22;31365;48.858;8.530;2023-04-06T08:47:38;10.20;98.30
46336;DHT22;31365;48.858;8.530;2023-04-06T08:50:09;10.30;98.50
46336;DHT22;31365;48.858;8.530;2023-04-06T08:52:40;10.30;96.60
46336;DHT22;31365;48.858;8.530;2023-04-06T08:55:10;10.30;95.50
46336;DHT22;31365;48.858;8.530;2023-04-06T08:57:40;10.30;95.50
46336;DHT22;31365;48.858;8.530;2023-04-06T09:00:11;10.30;94.40
46336;DHT22;31365;48.858;8.530;2023-04-06T09:02:43;10.40;95.90
46336;DHT22;31365;48.858;8.530;2023-04-06T09:05:14;10.60;94.40
46336;DHT22;31365;48.858;8.530;2023-04-06T09:07:43;10.60;93.10
46336;DHT22;31365;48.858;8.530;2023-04-06T09:10:13;10.70;93.80
46336;DHT22;31365;48.858;8.530;2023-04-06T09:12:46;10.70;93.10
46336;DHT22;31365;48.858;8.530;2023-04-06T09:15:18;10.80;93.90
46336;DHT22;31365;48.858;8.530;2023-04-06T09:17:50;10.90;92.80
46336;DHT22;31365;48.858;8.530;2023-04-06T09:20:23;10.90;92.50
46336;DHT22;31365;48.858;8.530;2023-04-06T09:22:54;10.90;93.20
46336;DHT22;31365;48.858;8.530;2023-04-06T09:25:24;11.00;93.60
46336;DHT22;31365;48.858;8.530;2023-04-06T09:28:03;11.00;92.90
46336;DHT22;31365;48.858;8.530;2023-04-06T09:30:33;11.10;92.70
46336;DHT22;31365;48.858;8.530;2023-04-06T09:33:03;11.00;92.60
46336;DHT22;31365;48.858;8.530;2023-04-06T09:35:33;11.00;92.90
46336;DHT22;31365;48.858;8.530;2023-04-06T09:38:10;11.00;92.60
46336;DHT22;31365;48.858;8.530;2023-04-06T09:40:48;11.00;92.30
46336;DHT22;31365;48.858;8.530;2023-04-06T09:43:29;11.10;92.40
46336;DHT22;31365;48.858;8.530;2023-04-06T09:46:00;11.10;92.60
46336;DHT22;31365;48.858;8.530;2023-04-06T09:48:31;11.20;91.30
46336;DHT22;31365;48.858;8.530;2023-04-06T09:51:04;11.20;91.20
46336;DHT22;31365;48.858;8.530;2023-04-06T09:53:39;11.30;90.90
46336;DHT22;31365;48.858;8.530;2023-04-06T09:56:16;11.40;90.80
46336;DHT22;31365;48.858;8.530;2023-04-06T09:58:57;11.40;89.60
46336;DHT22;31365;48.858;8.530;2023-04-06T10:01:33;11.50;90.60
46336;DHT22;31365;48.858;8.530;2023-04-06T10:04:13;11.50;89.60
46336;DHT22;31365;48.858;8.530;2023-04-06T10:06:50;11.50;90.00
46336;DHT22;31365;48.858;8.530;2023-04-06T10:09:22;11.60;90.00
46336;DHT22;31365;48.858;8.530;2023-04-06T10:11:58;11.60;88.90
46336;DHT22;31365;48.858;8.530;2023-04-06T10:14:29;11.60;90.10
46336;DHT22;31365;48.858;8.530;2023-04-06T10:16:59;11.80;90.70
46336;DHT22;31365;48.858;8.530;2023-04-06T10:19:39;11.80;90.80
46336;DHT22;31365;48.858;8.530;2023-04-06T10:22:24;11.90;91.10
46336;DHT22;31365;48.858;8.530;2023-04-06T10:24:58;12.00;91.50
46336;DHT22;31365;48.858;8.530;2023-04-06T10:27:31;12.00;92.00
46336;DHT22;31365;48.858;8.530;2023-04-06T10:30:03;12.00;91.80
46336;DHT22;31365;48.858;8.530;2023-04-06T10:32:36;12.00;91.30
46336;DHT22;31365;48.858;8.530;2023-04-06T10:35:10;12.00;91.30
46336;DHT22;31365;48.858;8.530;2023-04-06T10:37:47;12.10;91.20
46336;DHT22;31365;48.858;8.530;2023-04-06T10:40:23;12.20;91.40
46336;DHT22;31365;48.858;8.530;2023-04-06T10:42:55;12.20;90.70
46336;DHT22;31365;48.858;8.530;2023-04-06T10:45:36;12.20;90.20
46336;DHT22;31365;48.858;8.530;2023-04-06T10:48:16;12.30;89.10
46336;DHT22;31365;48.858;8.530;2023-04-06T10:50:48;12.40;89.90
46336;DHT22;31365;48.858;8.530;2023-04-06T10:53:23;12.60;90.60
46336;DHT22;31365;48.858;8.530;2023-04-06T10:55:55;12.60;91.40
46336;DHT22;31365;48.858;8.530;2023-04-06T10:58:25;12.60;90.50
46336;DHT22;31365;48.858;8.530;2023-04-06T11:00:55;12.70;90.90
46336;DHT22;31365;48.858;8.530;2023-04-06T11:03:24;13.00;90.30
46336;DHT22;31365;48.858;8.530;2023-04-06T11:05:54;13.60;89.70
46336;DHT22;31365;48.858;8.530;2023-04-06T11:08:24;14.40;87.70
46336;DHT22;31365;48.858;8.530;2023-04-06T11:11:04;14.90;85.90
46336;DHT22;31365;48.858;8.530;2023-04-06T11:13:40;15.70;87.00
46336;DHT22;31365;48.858;8.530;2023-04-06T11:16:15;16.30;83.90
46336;DHT22;31365;48.858;8.530;2023-04-06T11:18:51;16.80;81.00
46336;DHT22;31365;48.858;8.530;2023-04-06T11:21:34;16.70;77.80
46336;DHT22;31365;48.858;8.530;2023-04-06T11:24:08;16.90;77.80
46336;DHT22;31365;48.858;8.530;2023-04-06T11:26:42;17.30;76.20
46336;DHT22;31365;48.858;8.530;2023-04-06T11:29:14;18.10;74.00
46336;DHT22;31365;48.858;8.530;2023-04-06T11:31:47;18.70;72.00
46336;DHT22;31365;48.858;8.530;2023-04-06T11:34:18;19.20;71.60
46336;DHT22;31365;48.858;8.530;2023-04-06T11:36:54;19.50;69.30
46336;DHT22;31365;48.858;8.530;2023-04-06T11:39:26;20.10;70.00
46336;DHT22;31365;48.858;8.530;2023-04-06T11:41:59;20.30;66.40
46336;DHT22;31365;48.858;8.530;2023-04-06T11:44:37;20.50;66.60
46336;DHT22;31365;48.858;8.530;2023-04-06T11:47:11;21.00;64.50
46336;DHT22;31365;48.858;8.530;2023-04-06T11:49:44;21.10;63.10
46336;DHT22;31365;48.858;8.530;2023-04-06T11:52:21;21.20;61.80
46336;DHT22;31365;48.858;8.530;2023-04-06T11:54:53;21.20;61.80
46336;DHT22;31365;48.858;8.530;2023-04-06T11:57:24;21.50;60.60
46336;DHT22;31365;48.858;8.530;2023-04-06T11:59:54;21.70;60.70
46336;DHT22;31365;48.858;8.530;2023-04-06T12:02:24;21.60;59.80
46336;DHT22;31365;48.858;8.530;2023-04-06T12:04:53;21.20;59.60
46336;DHT22;31365;48.858;8.530;2023-04-06T12:07:21;21.00;59.40
46336;DHT22;31365;48.858;8.530;2023-04-06T12:09:50;20.90;59.40
46336;DHT22;31365;48.858;8.530;2023-04-06T12:12:19;20.90;59.20
46336;DHT22;31365;48.858;8.530;2023-04-06T12:14:48;21.10;58.80
46336;DHT22;31365;48.858;8.530;2023-04-06T12:17:18;20.80;58.20
46336;DHT22;31365;48.858;8.530;2023-04-06T12:19:51;20.70;58.40
46336;DHT22;31365;48.858;8.530;2023-04-06T12:22:19;21.00;58.40
46336;DHT22;31365;48.858;8.530;2023-04-06T12:24:49;20.90;58.60
46336;DHT22;31365;48.858;8.530;2023-04-06T12:27:18;20.70;58.60
46336;DHT22;31365;48.858;8.530;2023-04-06T12:29:47;20.50;59.20
46336;DHT22;31365;48.858;8.530;2023-04-06T12:32:15;20.30;59.90
46336;DHT22;31365;48.858;8.530;2023-04-06T12:34:44;20.00;59.30
46336;DHT22;31365;48.858;8.530;2023-04-06T12:51:09;22.00;55.90
46336;DHT22;31365;48.858;8.530;2023-04-06T12:53:37;20.80;58.00
46336;DHT22;31365;48.858;8.530;2023-04-06T12:56:17;21.10;59.30
46336;DHT22;31365;48.858;8.530;2023-04-06T12:58:50;21.40;57.00
46336;DHT22;31365;48.858;8.530;2023-04-06T13:01:19;21.30;57.70
46336;DHT22;31365;48.858;8.530;2023-04-06T13:03:49;21.70;57.80
46336;DHT22;31365;48.858;8.530;2023-04-06T13:06:19;22.30;56.90
46336;DHT22;31365;48.858;8.530;2023-04-06T13:08:48;23.20;56.50
46336;DHT22;31365;48.858;8.530;2023-04-06T13:11:18;24.20;54.70
46336;DHT22;31365;48.858;8.530;2023-04-06T13:13:48;25.00;54.60
46336;DHT22;31365;48.858;8.530;2023-04-06T13:16:17;25.70;52.80
46336;DHT22;31365;48.858;8.530;2023-04-06T13:18:46;26.10;52.10
46336;DHT22;31365;48.858;8.530;2023-04-06T13:21:15;25.70;50.90
46336;DHT22;31365;48.858;8.530;2023-04-06T13:23:45;24.80;50.40
46336;DHT22;31365;48.858;8.530;2023-04-06T13:26:15;24.70;50.70
46336;DHT22;31365;48.858;8.530;2023-04-06T13:28:46;23.90;51.20
46336;DHT22;31365;48.858;8.530;2023-04-06T13:31:15;23.30;51.40
46336;DHT22;31365;48.858;8.530;2023-04-06T13:33:43;22.70;51.40
46336;DHT22;31365;48.858;8.530;2023-04-06T13:36:12;21.80;51.20
46336;DHT22;31365;48.858;8.530;2023-04-06T13:38:45;21.00;53.00
46336;DHT22;31365;48.858;8.530;2023-04-06T13:41:19;20.80;52.00
46336;DHT22;31365;48.858;8.530;2023-04-06T13:43:49;20.80;52.20
46336;DHT22;31365;48.858;8.530;2023-04-06T13:46:19;20.90;51.60
46336;DHT22;31365;48.858;8.530;2023-04-06T13:48:49;20.90;51.50
46336;DHT22;31365;48.858;8.530;2023-04-06T13:51:18;20.90;51.10
46336;DHT22;31365;48.858;8.530;2023-04-06T13:53:48;20.70;50.90
46336;DHT22;31365;48.858;8.530;2023-04-06T13:56:19;20.50;50.80
46336;DHT22;31365;48.858;8.530;2023-04-06T13:58:48;20.60;50.10
46336;DHT22;31365;48.858;8.530;2023-04-06T14:01:17;21.10;50.90
46336;DHT22;31365;48.858;8.530;2023-04-06T14:03:45;21.10;50.30
46336;DHT22;31365;48.858;8.530;2023-04-06T14:06:17;20.70;50.20
46336;DHT22;31365;48.858;8.530;2023-04-06T14:09:01;20.40;51.20
46336;DHT22;31365;48.858;8.530;2023-04-06T14:11:32;20.30;51.00
46336;DHT22;31365;48.858;8.530;2023-04-06T14:14:03;20.20;51.50
46336;DHT22;31365;48.858;8.530;2023-04-06T14:16:32;20.60;52.30
46336;DHT22;31365;48.858;8.530;2023-04-06T14:19:02;20.70;51.60
46336;DHT22;31365;48.858;8.530;2023-04-06T14:21:32;20.50;50.30
46336;DHT22;31365;48.858;8.530;2023-04-06T14:24:01;20.70;50.50
46336;DHT22;31365;48.858;8.530;2023-04-06T14:26:31;20.60;50.70
46336;DHT22;31365;48.858;8.530;2023-04-06T14:34:14;20.50;51.40
46336;DHT22;31365;48.858;8.530;2023-04-06T14:36:43;20.50;50.00
46336;DHT22;31365;48.858;8.530;2023-04-06T14:39:15;20.50;51.00
46336;DHT22;31365;48.858;8.530;2023-04-06T14:41:46;20.10;51.90
46336;DHT22;31365;48.858;8.530;2023-04-06T14:44:16;19.50;51.60
46336;DHT22;31365;48.858;8.530;2023-04-06T14:46:46;19.60;51.90
46336;DHT22;31365;48.858;8.530;2023-04-06T14:49:15;19.40;51.90
46336;DHT22;31365;48.858;8.530;2023-04-06T14:51:44;19.40;53.40
46336;DHT22;31365;48.858;8.530;2023-04-06T14:54:14;19.30;52.90
46336;DHT22;31365;48.858;8.530;2023-04-06T14:56:44;18.90;53.40
46336;DHT22;31365;48.858;8.530;2023-04-06T14:59:13;18.50;52.40
46336;DHT22;31365;48.858;8.530;2023-04-06T15:01:42;18.10;52.60
46336;DHT22;31365;48.858;8.530;2023-04-06T15:04:12;17.50;52.70
46336;DHT22;31365;48.858;8.530;2023-04-06T15:06:41;17.20;53.60
46336;DHT22;31365;48.858;8.530;2023-04-06T15:09:10;17.00;53.80
46336;DHT22;31365;48.858;8.530;2023-04-06T15:11:41;16.80;54.20
46336;DHT22;31365;48.858;8.530;2023-04-06T15:14:10;16.60;54.70
46336;DHT22;31365;48.858;8.530;2023-04-06T15:16:40;16.30;55.20
46336;DHT22;31365;48.858;8.530;2023-04-06T15:19:08;16.00;56.40
46336;DHT22;31365;48.858;8.530;2023-04-06T15:21:38;15.60;58.70
46336;DHT22;31365;48.858;8.530;2023-04-06T15:24:08;15.20;59.40
46336;DHT22;31365;48.858;8.530;2023-04-06T15:26:37;15.10;61.00
46336;DHT22;31365;48.858;8.530;2023-04-06T15:29:09;15.10;60.80
46336;DHT22;31365;48.858;8.530;2023-04-06T15:31:38;15.10;60.90
46336;DHT22;31365;48.858;8.530;2023-04-06T15:34:08;14.80;62.00
46336;DHT22;31365;48.858;8.530;2023-04-06T15:36:36;14.70;62.80
46336;DHT22;31365;48.858;8.530;2023-04-06T15:39:06;14.60;62.70
46336;DHT22;31365;48.858;8.530;2023-04-06T15:41:36;14.50;63.80
46336;DHT22;31365;48.858;8.530;2023-04-06T15:44:05;14.30;64.40
46336;DHT22;31365;48.858;8.530;2023-04-06T15:46:35;14.20;64.90
46336;DHT22;31365;48.858;8.530;2023-04-06T15:49:05;14.10;65.10
46336;DHT22;31365;48.858;8.530;2023-04-06T15:51:34;14.10;66.30
46336;DHT22;31365;48.858;8.530;2023-04-06T15:54:05;14.10;66.70
46336;DHT22;31365;48.858;8.530;2023-04-06T15:56:34;13.90;66.30
46336;DHT22;31365;48.858;8.530;2023-04-06T15:59:03;13.90;67.30
46336;DHT22;31365;48.858;8.530;2023-04-06T16:01:34;13.80;67.60
46336;DHT22;31365;48.858;8.530;2023-04-06T16:04:06;13.70;67.80
46336;DHT22;31365;48.858;8.530;2023-04-06T16:06:36;13.70;67.80
46336;DHT22;31365;48.858;8.530;2023-04-06T16:09:05;13.60;68.60
46336;DHT22;31365;48.858;8.530;2023-04-06T16:11:34;13.60;68.60
46336;DHT22;31365;48.858;8.530;2023-04-06T16:22:45;13.30;69.10
46336;DHT22;31365;48.858;8.530;2023-04-06T16:25:15;13.10;69.20
46336;DHT22;31365;48.858;8.530;2023-04-06T16:27:44;13.00;70.50
46336;DHT22;31365;48.858;8.530;2023-04-06T16:30:13;13.00;71.90
46336;DHT22;31365;48.858;8.530;2023-04-06T16:32:43;12.90;72.10
46336;DHT22;31365;48.858;8.530;2023-04-06T16:35:13;12.90;72.10
46336;DHT22;31365;48.858;8.530;2023-04-06T16:37:42;12.90;72.30
46336;DHT22;31365;48.858;8.530;2023-04-06T16:40:13;12.80;72.20
46336;DHT22;31365;48.858;8.530;2023-04-06T16:42:42;12.80;73.00
46336;DHT22;31365;48.858;8.530;2023-04-06T16:45:12;12.70;72.70
46336;DHT22;31365;48.858;8.530;2023-04-06T16:47:43;12.70;72.30
46336;DHT22;31365;48.858;8.530;2023-04-06T16:50:11;12.70;72.40
46336;DHT22;31365;48.858;8.530;2023-04-06T16:52:41;12.60;72.20
46336;DHT22;31365;48.858;8.530;2023-04-06T16:55:10;12.60;72.20
46336;DHT22;31365;48.858;8.530;2023-04-06T16:57:41;12.60;72.80
46336;DHT22;31365;48.858;8.530;2023-04-06T17:00:11;12.50;72.80
46336;DHT22;31365;48.858;8.530;2023-04-06T17:02:41;12.40;72.60
46336;DHT22;31365;48.858;8.530;2023-04-06T17:05:11;12.40;72.50
46336;DHT22;31365;48.858;8.530;2023-04-06T17:07:40;12.40;73.50
46336;DHT22;31365;48.858;8.530;2023-04-06T17:10:09;12.20;74.00
46336;DHT22;31365;48.858;8.530;2023-04-06T17:12:40;12.10;75.00
46336;DHT22;31365;48.858;8.530;2023-04-06T17:15:10;12.00;75.50
46336;DHT22;31365;48.858;8.530;2023-04-06T17:17:42;11.90;75.30
46336;DHT22;31365;48.858;8.530;2023-04-06T17:20:13;11.90;76.10
46336;DHT22;31365;48.858;8.530;2023-04-06T17:22:43;11.80;76.40
46336;DHT22;31365;48.858;8.530;2023-04-06T17:25:14;11.80;76.50
46336;DHT22;31365;48.858;8.530;2023-04-06T17:27:46;11.80;77.00
46336;DHT22;31365;48.858;8.530;2023-04-06T17:30:16;11.70;77.10